• Join FlightAware (Why Join?)
  • Login
  • US Flag 
01:48PM EDT


 

Airport Tracker/Info


-or-


 

Live Flight TrackerFlight Track Log ✈ N915CD ✈ 16-Jul-2013 ✈ KBFL - KAPC

Flight Track Log - Related Links

Times and Time Zones

All times are in EDT time to prevent confusion due to time zone crossing. See the N915CD flight status page for this flight to view local times or setup timezone preferences in your user account.

Time Position Orientation Groundspeed Altitude Reporting Facility
EDT Latitude Longitude Course Direction KTS MPH feet Rate Location/Type
07:01PM 35.4744 -119.2067 285° West 159 183 4,200  Level Oakland Center
07:02PM 35.4867 -119.2592 286° West 161 185 5,200 1,020 Climbing Oakland Center
07:03PM 35.5000 -119.3142 287° West 163 188 6,300 1,020 Climbing Oakland Center
07:04PM 35.5142 -119.3700 287° West 168 193 7,300 1,020 Climbing Los Angeles Center
07:05PM 35.5335 -119.4339 292° West  Level FlightAware Approximate
07:05PM 35.5269 -119.4272 285° West 172 198 8,500  Level Los Angeles Center
07:06PM 35.5502 -119.5008 285° West  Level FlightAware Approximate
07:06PM 35.5389 -119.4858 284° West 176 203 9,600  Level Los Angeles Center
07:07PM 35.5519 -119.5456 285° West 179 206 10,400 960 Climbing Los Angeles Center
07:08PM 35.5694 -119.6183 286° West 184 212 11,600 960 Climbing Los Angeles Center
07:09PM 35.5819 -119.6775 285° West 181 208 12,500 840 Climbing Los Angeles Center
07:10PM 35.5956 -119.7378 286° West 183 211 13,400 840 Climbing Los Angeles Center
07:11PM 35.6078 -119.7961 284° West 178 205 14,300 780 Climbing Los Angeles Center
07:13PM 35.6189 -119.8517 284° West 171 197 15,200 780 Climbing Los Angeles Center
07:13PM 35.6300 -119.9075 284° West 175 201 15,900 780 Climbing Oakland Center
07:14PM 35.6425 -119.9672 284° West 180 207 16,600 600 Climbing Oakland Center
07:15PM 35.6869 -120.0042 326° Northwest 201 231 17,200 540 Climbing Oakland Center
07:16PM 35.7406 -120.0456 328° Northwest 193 222 17,800 600 Climbing Oakland Center
07:18PM 35.8361 -120.1117 331° Northwest 197 227 19,100 540 Climbing Oakland Center
07:19PM 35.8814 -120.1461 328° Northwest 193 222 19,600 420 Climbing Oakland Center
07:20PM 35.9294 -120.1797 330° Northwest 199 229 20,000 180 Climbing Oakland Center
07:21PM 35.9808 -120.2175 329° Northwest 215 247 20,000  Level Oakland Center
07:22PM 36.0361 -120.2578 329° Northwest 229 264 20,000  Level Oakland Center
07:24PM 36.0997 -120.3114 326° Northwest 232 267 20,000  Level Oakland Center
07:25PM 36.1528 -120.3506 329° Northwest 228 262 20,000  Level Oakland Center
07:26PM 36.2061 -120.3897 329° Northwest 226 260 20,000  Level Oakland Center
07:27PM 36.2597 -120.4328 327° Northwest 230 265 20,000  Level Oakland Center
07:28PM 36.3153 -120.4792 326° Northwest 242 278 20,000  Level Oakland Center
07:29PM 36.3728 -120.5175 332° Northwest 238 274 20,000 -60 Level Oakland Center
07:30PM 36.4297 -120.5594 329° Northwest 240 276 19,900 -60 Descending Oakland Center
07:31PM 36.4861 -120.6053 327° Northwest 241 277 19,900  Level Oakland Center
07:32PM 36.5333 -120.6544 320° Northwest 226 260 20,000  Climbing Oakland Center
07:33PM 36.5850 -120.7242 313° West 229 264 20,000  Level Oakland Center
07:34PM 36.6289 -120.7811 314° West 230 265 20,000  Level Oakland Center
07:35PM 36.6728 -120.8328 317° Northwest 221 254 20,000  Level Oakland Center
07:36PM 36.7161 -120.8856 316° Northwest 221 254 20,000  Level Oakland Center
07:37PM 36.7586 -120.9431 313° West 226 260 20,000  Level Oakland Center
07:38PM 36.8008 -121.0000 313° West 226 260 20,000  Level Oakland Center
07:39PM 36.8525 -121.0628 316° Northwest 225 259 20,000  Level Oakland Center
07:40PM 36.8953 -121.1194 313° West 224 258 20,000  Level Oakland Center
07:41PM 36.9344 -121.1711 313° West 218 251 20,000  Level Oakland Center
07:42PM 36.9769 -121.2283 313° West 223 257 20,000  Level Oakland Center
07:43PM 37.0197 -121.2847 314° West 223 257 20,000  Level Oakland Center
07:44PM 37.0625 -121.3422 313° West 225 259 20,000  Level Oakland Center
07:45PM 37.1075 -121.4003 314° West 219 252 20,000  Level Oakland Center
07:46PM 37.1511 -121.4569 314° West 223 257 20,000 -60 Level Oakland Center
07:47PM 37.1925 -121.5158 311° West 223 257 19,900 -60 Descending Oakland Center
07:48PM 37.2439 -121.5814 315° West 219 252 19,900 -480 Level Oakland Center
07:49PM 37.2900 -121.6417 314° West 235 270 19,000 -960 Descending Oakland Center
07:50PM 37.3397 -121.7064 314° West 253 291 18,000 -960 Descending Oakland Center
07:51PM 37.3864 -121.7644 315° West 257 296 17,100 -960 Descending Oakland Center
07:52PM 37.4375 -121.8308 314° West 262 302 16,100 -1,020 Descending Oakland Center
07:53PM 37.4972 -121.8811 326° Northwest 259 298 15,100 -1,260 Descending Oakland Center
07:54PM 37.5786 -121.9219 338° Northwest 261 300 13,600 -1,380 Descending Oakland Center
07:55PM 37.6436 -121.9531 339° North 253 291 12,400 -780 Descending Oakland Center
07:56PM 37.7044 -121.9872 336° Northwest 245 282 12,100 -660 Descending Oakland Center
07:57PM 37.7642 -122.0206 336° Northwest 237 273 11,100 -1,140 Descending Oakland Center
07:58PM 37.8261 -122.0550 336° Northwest 242 278 9,800 -1,260 Descending Oakland Center
07:59PM 37.8861 -122.0928 334° Northwest 241 277 8,600 -1,260 Descending Oakland Center
08:00PM 37.9458 -122.1261 336° Northwest 238 274 7,300 -1,380 Descending Oakland Center
08:01PM 38.0042 -122.1625 334° Northwest 236 272 5,900 -1,500 Descending Oakland Center
08:02PM 38.0747 -122.2022 336° Northwest 234 269 4,300 -1,380 Descending Oakland Center
08:03PM 38.1300 -122.2153 349° North 213 245 3,100 -1,140 Descending Oakland Center
08:04PM 38.1731 -122.2219 353° North 171 197 2,000 -1,080 Descending Oakland Center
08:05PM 38.2097 -122.2300 350° North 146 168 900 -960 Descending Oakland Center
08:06PM 38.2139 -122.2639 279° West 118 136 100 -840 Descending Oakland Center